createdAt,value
2019-01-11T00:01:49.032Z,3.00
2019-01-11T00:04:18.283Z,3.33
2019-01-11T00:06:47.313Z,3.50
2019-01-11T00:09:17.239Z,3.75
2019-01-11T00:11:46.336Z,3.25
2019-01-11T00:14:15.423Z,4.13
2019-01-11T00:16:44.620Z,3.80
2019-01-11T00:19:13.675Z,3.57
2019-01-11T00:21:42.755Z,4.10
2019-01-11T00:24:11.891Z,4.40
2019-01-11T00:26:40.889Z,3.87
2019-01-11T00:29:10.175Z,3.92
2019-01-11T00:31:39.149Z,4.72
2019-01-11T00:34:08.370Z,4.00
2019-01-11T00:36:37.503Z,4.65
2019-01-11T00:39:08.105Z,4.58
2019-01-11T00:41:37.099Z,5.30
2019-01-11T00:44:06.230Z,4.85
2019-01-11T00:46:35.343Z,4.85
2019-01-11T00:49:04.947Z,4.53
2019-01-11T00:51:33.943Z,4.30
2019-01-11T00:54:02.867Z,5.00
2019-01-11T00:56:31.885Z,5.27
2019-01-11T00:59:01.020Z,5.73
2019-01-11T01:01:30.105Z,5.23
2019-01-11T01:03:59.201Z,5.30
2019-01-11T01:06:28.377Z,5.65
2019-01-11T01:08:57.471Z,5.72
2019-01-11T01:11:26.659Z,6.00
2019-01-11T01:13:55.705Z,6.10
2019-01-11T01:16:24.999Z,5.87
2019-01-11T01:18:56.237Z,5.70
2019-01-11T01:21:25.343Z,6.13
2019-01-11T01:23:54.433Z,6.30
2019-01-11T01:26:23.429Z,5.70
2019-01-11T01:28:52.442Z,5.60
2019-01-11T01:31:21.517Z,6.80
2019-01-11T01:33:50.653Z,6.03
2019-01-11T01:36:19.820Z,6.35
2019-01-11T01:38:50.025Z,6.65
2019-01-11T01:41:19.191Z,7.10
2019-01-11T01:43:48.167Z,7.87
2019-01-11T01:46:17.303Z,7.42
2019-01-11T01:48:46.373Z,7.72
2019-01-11T01:51:15.519Z,7.10
2019-01-11T01:53:44.553Z,8.43
2019-01-11T01:56:13.506Z,7.93
2019-01-11T01:58:42.495Z,7.72
2019-01-11T02:01:11.607Z,7.42
2019-01-11T02:03:40.465Z,8.15
2019-01-11T02:06:09.456Z,8.28
2019-01-11T02:08:38.513Z,9.10
2019-01-11T02:11:07.753Z,9.13
2019-01-11T02:13:36.706Z,8.50
2019-01-11T02:16:05.868Z,9.60
2019-01-11T02:18:34.930Z,8.90
2019-01-11T02:21:03.959Z,9.80
2019-01-11T02:23:32.948Z,10.13
2019-01-11T02:26:02.058Z,10.55
2019-01-11T02:28:31.159Z,10.43
2019-01-11T02:31:00.175Z,10.63
2019-01-11T02:33:29.105Z,9.90
2019-01-11T02:35:58.118Z,12.00
2019-01-11T02:38:27.036Z,11.50
2019-01-11T02:41:43.312Z,11.63
2019-01-11T02:45:13.383Z,12.13
2019-01-11T02:59:34.783Z,12.43
2019-01-11T03:04:51.847Z,13.78
2019-01-11T03:07:53.305Z,13.23
2019-01-11T03:15:43.096Z,13.80
2019-01-11T03:25:56.752Z,14.20
2019-01-11T03:28:26.618Z,16.20
2019-01-11T03:31:02.204Z,14.50
2019-01-11T03:33:50.036Z,16.02
2019-01-11T03:36:19.250Z,14.80
2019-01-11T03:38:49.597Z,17.67
2019-01-11T03:41:18.561Z,16.25
2019-01-11T03:43:48.142Z,17.37
2019-01-11T03:46:18.428Z,15.43
2019-01-11T03:48:56.462Z,14.20
2019-01-11T03:51:27.804Z,16.25
2019-01-11T03:53:57.492Z,16.90
2019-01-11T03:56:27.644Z,16.15
2019-01-11T03:58:57.896Z,16.00
2019-01-11T04:01:37.450Z,16.60
2019-01-11T04:04:06.468Z,17.00
2019-01-11T04:06:35.317Z,16.27
2019-01-11T04:09:08.496Z,17.12
2019-01-11T04:11:38.325Z,16.85
2019-01-11T04:14:32.856Z,15.90
2019-01-11T04:17:50.317Z,16.37
2019-01-11T04:20:32.882Z,17.70
2019-01-11T04:23:37.590Z,16.37
2019-01-11T04:33:23.011Z,17.67
2019-01-11T04:36:12.170Z,16.80
2019-01-11T04:38:46.999Z,17.80
2019-01-11T04:41:28.509Z,16.80
2019-01-11T04:43:57.396Z,16.48
2019-01-11T04:46:26.269Z,17.27
2019-01-11T04:48:59.198Z,16.70
2019-01-11T04:51:29.436Z,17.80
2019-01-11T04:53:58.482Z,15.83
2019-01-11T04:56:29.217Z,18.55
2019-01-11T04:59:11.424Z,17.20
2019-01-11T05:01:49.001Z,17.95
2019-01-11T05:04:46.076Z,18.62
2019-01-11T05:07:15.109Z,18.65
2019-01-11T05:10:05.598Z,19.52
2019-01-11T05:12:49.277Z,20.97
2019-01-11T05:15:55.562Z,19.05
2019-01-11T05:19:30.377Z,18.23
2019-01-11T05:22:09.001Z,17.00
2019-01-11T05:24:54.292Z,19.50
2019-01-11T05:27:25.144Z,18.82
2019-01-11T05:33:38.109Z,18.37
2019-01-11T05:37:06.379Z,19.70
2019-01-11T05:40:07.710Z,19.17
2019-01-11T05:46:39.754Z,19.55
2019-01-11T05:49:44.585Z,19.60
2019-01-11T05:52:19.648Z,18.98
2019-01-11T05:54:50.732Z,21.70
2019-01-11T06:01:10.160Z,19.87
2019-01-11T06:03:45.178Z,20.43
2019-01-11T06:06:18.142Z,21.37
2019-01-11T06:08:47.036Z,21.67
2019-01-11T06:11:16.088Z,21.37
2019-01-11T06:13:44.995Z,20.70
2019-01-11T06:19:30.654Z,20.32
2019-01-11T06:22:07.302Z,21.00
2019-01-11T06:24:36.292Z,20.17
2019-01-11T06:27:05.409Z,20.70
2019-01-11T06:29:39.394Z,19.95
2019-01-11T06:32:18.499Z,20.00
2019-01-11T06:34:47.412Z,20.75
2019-01-11T06:37:16.428Z,20.40
2019-01-11T06:39:45.480Z,20.08
2019-01-11T06:42:30.131Z,21.95
2019-01-11T06:45:00.764Z,20.00
2019-01-11T06:47:29.828Z,19.20
2019-01-11T06:49:59.115Z,19.48
2019-01-11T06:52:28.419Z,18.27
2019-01-11T06:54:57.462Z,18.82
2019-01-11T06:57:26.471Z,19.73
2019-01-11T06:59:55.540Z,18.40
2019-01-11T07:02:25.787Z,18.77
2019-01-11T07:04:58.975Z,19.15
2019-01-11T07:07:27.907Z,19.05
2019-01-11T07:09:56.918Z,18.15
2019-01-11T07:12:25.946Z,18.20
2019-01-11T07:14:54.838Z,17.00
2019-01-11T07:17:23.924Z,18.40
2019-01-11T07:19:54.699Z,17.02
2019-01-11T07:22:23.648Z,16.42
2019-01-11T07:24:52.537Z,16.30
2019-01-11T07:27:29.650Z,16.37
2019-01-11T07:29:58.655Z,16.93
2019-01-11T07:32:27.607Z,15.48
2019-01-11T07:34:56.581Z,15.63
2019-01-11T07:37:25.532Z,14.70
2019-01-11T07:39:54.558Z,16.30
2019-01-11T07:42:23.583Z,13.85
2019-01-11T07:44:52.526Z,14.05
2019-01-11T07:47:21.526Z,15.32
2019-01-11T07:49:50.377Z,15.15
2019-01-11T07:52:19.386Z,13.40
2019-01-11T07:54:48.343Z,12.30
2019-01-11T07:57:17.255Z,14.23
2019-01-11T07:59:46.237Z,15.47
2019-01-11T08:02:15.295Z,13.60
2019-01-11T08:04:44.154Z,12.83
2019-01-11T08:07:13.093Z,13.00
2019-01-11T08:09:42.024Z,12.90
2019-01-11T08:12:11.044Z,12.77
2019-01-11T08:14:40.023Z,13.20
2019-01-11T08:17:09.050Z,12.63
2019-01-11T08:19:37.996Z,14.23
2019-01-11T08:22:08.640Z,12.97
2019-01-11T08:24:39.170Z,12.67
2019-01-11T08:27:13.988Z,11.83
2019-01-11T08:29:43.003Z,12.03
2019-01-11T08:32:13.602Z,12.93
2019-01-11T08:34:42.644Z,10.97
2019-01-11T08:37:13.195Z,12.20
2019-01-11T08:39:42.291Z,11.90
2019-01-11T17:07:19.631Z,15.70
2019-01-11T17:09:48.605Z,15.77
2019-01-11T17:12:17.539Z,16.60
2019-01-11T17:14:46.501Z,15.40
2019-01-11T17:17:15.513Z,17.13
2019-01-11T17:19:44.408Z,20.70
2019-01-11T17:22:13.402Z,20.50
2019-01-11T17:24:42.331Z,17.20
2019-01-11T17:27:11.247Z,18.83
2019-01-11T17:29:40.321Z,22.53
2019-01-11T17:32:09.127Z,16.13
2019-01-11T17:34:38.083Z,16.30
2019-01-11T17:37:06.953Z,15.07
2019-01-11T17:39:35.854Z,14.00
2019-01-11T17:42:04.867Z,13.63
2019-01-11T17:44:33.829Z,15.10
2019-01-11T17:47:02.811Z,14.73
2019-01-11T17:49:31.719Z,14.40
2019-01-11T17:52:00.594Z,16.13
2019-01-11T17:54:29.505Z,16.70
2019-01-11T17:56:58.367Z,14.30
2019-01-11T17:59:27.406Z,14.13
2019-01-11T18:01:56.461Z,12.63
2019-01-11T18:04:25.412Z,13.27
2019-01-11T18:06:54.303Z,15.20
2019-01-11T18:09:23.259Z,12.50
2019-01-11T18:11:52.296Z,13.63
2019-01-11T18:14:21.233Z,13.13
2019-01-11T18:16:50.394Z,11.77
2019-01-11T18:19:19.554Z,12.00
2019-01-11T18:21:48.522Z,11.10
2019-01-11T18:24:17.673Z,10.67
2019-01-11T18:26:46.602Z,10.93
2019-01-11T18:29:15.537Z,11.50
2019-01-11T18:31:44.487Z,10.70
2019-01-11T18:34:13.475Z,10.60
2019-01-11T18:36:42.380Z,11.23
2019-01-11T18:39:11.324Z,10.00
2019-01-11T18:41:40.341Z,9.67
2019-01-11T18:44:09.302Z,9.67
2019-01-11T18:46:38.306Z,9.53
2019-01-11T18:49:07.412Z,8.17
2019-01-11T18:51:36.445Z,9.13
2019-01-11T18:54:05.625Z,8.33
2019-01-11T18:56:34.685Z,7.40
2019-01-11T18:59:03.815Z,7.20
2019-01-11T19:01:33.538Z,6.70
2019-01-11T19:04:02.693Z,6.77
2019-01-11T19:06:32.125Z,6.37
2019-01-11T19:09:01.342Z,7.00
2019-01-11T19:11:30.330Z,7.07
2019-01-11T19:13:59.526Z,6.50
2019-01-11T19:16:28.621Z,6.50
2019-01-11T19:18:57.664Z,5.63
2019-01-11T19:21:27.374Z,5.10
2019-01-11T19:23:56.471Z,5.87
2019-01-11T19:26:25.562Z,6.97
2019-01-11T19:28:54.646Z,5.50
2019-01-11T19:31:24.060Z,5.70
2019-01-11T19:33:53.098Z,8.47
2019-01-11T19:36:22.272Z,5.13
2019-01-11T19:38:51.538Z,7.27
2019-01-11T19:41:20.877Z,6.70
2019-01-11T19:43:50.028Z,8.77
2019-01-11T19:46:19.886Z,5.07
2019-01-11T19:48:49.044Z,7.20
2019-01-11T19:51:18.219Z,5.33
2019-01-11T19:53:47.997Z,4.67
2019-01-11T19:56:17.310Z,5.60
2019-01-11T19:58:46.244Z,6.50
2019-01-11T20:01:15.391Z,5.30
2019-01-11T20:03:44.562Z,8.97
2019-01-11T20:06:13.711Z,6.30
2019-01-11T20:08:42.776Z,4.50
2019-01-11T20:11:12.168Z,4.77
2019-01-11T20:13:42.326Z,5.57
2019-01-11T20:16:11.487Z,4.60
2019-01-11T20:18:40.563Z,4.47
2019-01-11T20:21:09.589Z,4.90
2019-01-11T20:23:38.661Z,4.87
2019-01-11T20:26:07.923Z,4.70
2019-01-11T20:28:37.030Z,4.10
2019-01-11T20:31:06.275Z,5.43
2019-01-11T20:33:35.461Z,4.60
2019-01-11T20:36:04.821Z,4.67
2019-01-11T20:38:33.971Z,4.13
2019-01-11T20:41:03.092Z,4.00
2019-01-11T20:43:32.826Z,4.40
2019-01-11T20:46:03.554Z,5.43
2019-01-11T20:48:32.803Z,5.57
2019-01-11T20:51:01.805Z,4.33
2019-01-11T20:53:31.407Z,5.03
2019-01-11T20:56:00.607Z,5.60
2019-01-11T20:58:30.187Z,4.50
2019-01-11T21:00:59.431Z,4.77
2019-01-11T21:03:28.351Z,5.73
2019-01-11T21:05:57.291Z,5.30
2019-01-11T21:08:26.281Z,4.93
2019-01-11T21:10:55.407Z,5.00
2019-01-11T21:13:24.285Z,5.00
2019-01-11T21:15:53.163Z,8.23
2019-01-11T21:18:22.145Z,8.30
2019-01-11T21:20:51.073Z,6.47
2019-01-11T21:23:20.098Z,5.10
2019-01-11T21:25:50.319Z,7.10
2019-01-11T21:28:19.311Z,6.90
2019-01-11T21:30:49.295Z,6.33
2019-01-11T21:33:18.315Z,6.07
2019-01-11T21:35:47.310Z,4.97
2019-01-11T21:38:16.420Z,5.17
2019-01-11T21:40:45.481Z,5.77
2019-01-11T21:43:14.561Z,5.23
2019-01-11T21:45:43.557Z,8.10
2019-01-11T21:48:12.545Z,6.47
2019-01-11T21:50:41.670Z,5.50
2019-01-11T21:53:10.907Z,5.63
2019-01-11T21:55:39.972Z,6.60
2019-01-11T21:58:08.989Z,5.77
2019-01-11T22:00:40.415Z,5.80
2019-01-11T22:03:15.487Z,6.47
2019-01-11T22:05:44.871Z,5.97
2019-01-11T22:08:14.667Z,7.43
2019-01-11T22:10:44.020Z,7.13
2019-01-11T22:13:12.995Z,6.40
2019-01-11T22:15:42.144Z,7.43
2019-01-11T22:18:11.132Z,7.23
2019-01-11T22:20:40.141Z,6.23
2019-01-11T22:23:09.172Z,7.43
2019-01-11T22:25:38.754Z,8.63
2019-01-11T22:28:07.819Z,5.43
2019-01-11T22:30:36.691Z,9.20
2019-01-11T22:33:05.948Z,6.70
2019-01-11T22:35:34.890Z,7.13
2019-01-11T22:38:03.897Z,7.10
2019-01-11T22:40:32.837Z,6.60
2019-01-11T22:43:01.812Z,7.83
2019-01-11T22:45:30.947Z,6.70
2019-01-11T22:47:59.913Z,7.77
2019-01-11T22:50:28.947Z,6.70
2019-01-11T22:52:57.888Z,7.93
2019-01-11T22:55:26.984Z,8.20
2019-01-11T22:57:56.080Z,6.60
2019-01-11T23:01:20.150Z,7.53
2019-01-11T23:03:52.154Z,6.40
2019-01-11T23:06:36.022Z,6.70
2019-01-11T23:12:52.934Z,6.97
2019-01-11T23:19:49.204Z,8.60
2019-01-11T23:22:48.980Z,7.90
2019-01-11T23:29:43.731Z,7.30
2019-01-11T23:40:02.564Z,7.73
